createdAt,value
2022-12-16T00:00:00.208Z,49.63
2022-12-16T00:02:29.698Z,49.18
2022-12-16T00:04:58.672Z,50.47
2022-12-16T00:07:29.512Z,48.82
2022-12-16T00:09:59.364Z,48.50
2022-12-16T00:12:31.026Z,48.72
2022-12-16T00:14:58.511Z,48.46
2022-12-16T00:17:29.091Z,48.41
2022-12-16T00:19:59.186Z,48.65
2022-12-16T00:22:30.838Z,48.17
2022-12-16T00:24:59.262Z,48.41
2022-12-16T00:27:27.508Z,48.15
2022-12-16T00:29:55.885Z,48.29
2022-12-16T00:32:24.937Z,48.42
2022-12-16T00:34:53.383Z,48.29
2022-12-16T00:37:22.514Z,48.17
2022-12-16T00:39:51.424Z,47.91
2022-12-16T00:42:22.743Z,47.99
2022-12-16T00:44:53.778Z,48.18
2022-12-16T00:47:24.004Z,47.99
2022-12-16T00:49:57.370Z,48.05
2022-12-16T00:52:25.287Z,48.87
2022-12-16T00:54:54.023Z,48.73
2022-12-16T00:57:24.258Z,48.36
2022-12-16T00:59:52.668Z,48.35
2022-12-16T01:02:21.641Z,48.79
2022-12-16T01:04:59.735Z,48.28
2022-12-16T01:07:31.330Z,48.30
2022-12-16T01:10:00.900Z,47.87
2022-12-16T01:12:33.933Z,48.21
2022-12-16T01:15:01.671Z,48.29
2022-12-16T01:17:29.266Z,48.37
2022-12-16T01:19:58.103Z,48.01
2022-12-16T01:22:26.071Z,48.87
2022-12-16T01:24:54.099Z,48.61
2022-12-16T01:27:22.809Z,48.61
2022-12-16T01:29:51.359Z,48.75
2022-12-16T01:32:18.898Z,48.48
2022-12-16T01:34:52.599Z,49.00
2022-12-16T01:37:24.782Z,49.28
2022-12-16T01:39:52.583Z,49.50
2022-12-16T01:42:21.885Z,48.72
2022-12-16T01:44:52.117Z,49.25
2022-12-16T01:47:27.845Z,49.33
2022-12-16T01:50:14.419Z,49.29
2022-12-16T01:52:45.713Z,49.53
2022-12-16T01:55:16.495Z,49.52
2022-12-16T01:57:48.786Z,49.47
2022-12-16T02:00:18.331Z,50.03
2022-12-16T02:02:47.288Z,49.79
2022-12-16T02:05:23.752Z,49.43
2022-12-16T02:07:54.371Z,49.84
2022-12-16T02:10:26.041Z,49.47
2022-12-16T02:13:04.729Z,49.34
2022-12-16T02:15:51.863Z,49.45
2022-12-16T02:18:39.061Z,49.70
2022-12-16T02:21:14.149Z,49.23
2022-12-16T02:24:02.867Z,49.17
2022-12-16T02:26:49.975Z,49.58
2022-12-16T02:29:18.569Z,49.20
2022-12-16T02:31:59.353Z,49.15
2022-12-16T02:34:35.429Z,48.74
2022-12-16T02:37:17.312Z,48.71
2022-12-16T02:39:57.783Z,49.20
2022-12-16T02:42:34.722Z,49.12
2022-12-16T02:45:20.552Z,49.74
2022-12-16T02:47:49.276Z,49.12
2022-12-16T02:50:25.056Z,49.20
2022-12-16T02:52:55.867Z,49.17
2022-12-16T02:55:26.150Z,49.15
2022-12-16T02:58:05.628Z,49.04
2022-12-16T03:00:38.862Z,49.42
2022-12-16T03:03:21.467Z,49.76
2022-12-16T03:05:53.323Z,50.04
2022-12-16T03:08:24.595Z,50.20
2022-12-16T03:10:54.383Z,50.56
2022-12-16T03:13:23.702Z,50.96
2022-12-16T03:15:54.822Z,51.20
2022-12-16T03:18:24.675Z,51.67
2022-12-16T03:21:01.434Z,51.65
2022-12-16T03:23:32.799Z,51.90
2022-12-16T03:26:09.359Z,52.06
2022-12-16T03:28:43.601Z,51.93
2022-12-16T03:31:26.301Z,51.94
2022-12-16T03:34:00.708Z,51.68
2022-12-16T03:36:32.598Z,51.45
2022-12-16T03:39:00.297Z,51.52
2022-12-16T03:41:31.990Z,51.87
2022-12-16T03:43:59.915Z,51.69
2022-12-16T03:46:27.550Z,51.53
2022-12-16T03:48:55.677Z,52.11
2022-12-16T03:51:27.346Z,52.16
2022-12-16T03:53:55.733Z,52.33
2022-12-16T03:56:23.346Z,52.80
2022-12-16T03:58:50.911Z,53.13
2022-12-16T04:01:21.798Z,53.74
2022-12-16T04:03:49.855Z,53.42
2022-12-16T04:06:21.318Z,53.42
2022-12-16T04:08:49.712Z,53.59
2022-12-16T04:11:43.283Z,53.60
2022-12-16T04:14:29.262Z,53.43
2022-12-16T04:17:16.290Z,53.05
2022-12-16T04:20:05.465Z,53.21
2022-12-16T04:23:00.090Z,53.46
2022-12-16T04:25:36.339Z,53.43
2022-12-16T04:28:04.346Z,53.40
2022-12-16T04:30:35.402Z,53.48
2022-12-16T04:33:44.355Z,53.64
2022-12-16T04:36:29.952Z,53.76
2022-12-16T04:39:16.672Z,53.91
2022-12-16T04:42:03.105Z,53.89
2022-12-16T04:44:52.270Z,53.83
2022-12-16T04:47:39.937Z,54.00
2022-12-16T04:50:25.910Z,53.67
2022-12-16T04:53:12.174Z,54.00
2022-12-16T04:56:03.781Z,54.36
2022-12-16T04:58:51.880Z,54.42
2022-12-16T05:01:38.001Z,54.51
2022-12-16T05:04:23.859Z,54.39
2022-12-16T05:07:09.587Z,54.57
2022-12-16T05:09:55.208Z,54.87
2022-12-16T05:12:40.678Z,54.82
2022-12-16T05:15:26.523Z,54.96
2022-12-16T05:18:16.366Z,55.33
2022-12-16T05:21:03.890Z,55.16
2022-12-16T05:23:51.395Z,55.32
2022-12-16T05:26:37.200Z,55.57
2022-12-16T05:29:22.836Z,55.75
2022-12-16T05:32:08.495Z,55.52
2022-12-16T05:34:53.831Z,55.45
2022-12-16T05:37:39.466Z,55.48
2022-12-16T05:40:28.211Z,55.53
2022-12-16T05:43:16.936Z,55.32
2022-12-16T05:46:02.975Z,55.07
2022-12-16T05:48:48.669Z,55.33
2022-12-16T05:51:34.209Z,55.71
2022-12-16T05:54:19.651Z,56.00
2022-12-16T05:57:05.995Z,56.06
2022-12-16T05:59:51.419Z,56.24
2022-12-16T06:02:38.652Z,56.14
2022-12-16T06:05:24.346Z,55.89
2022-12-16T06:08:10.588Z,56.29
2022-12-16T06:10:56.429Z,56.23
2022-12-16T06:13:42.306Z,56.17
2022-12-16T06:16:27.918Z,55.99
2022-12-16T06:19:13.567Z,56.19
2022-12-16T06:21:59.154Z,56.22
2022-12-16T06:24:45.099Z,56.33
2022-12-16T06:27:30.668Z,56.17
2022-12-16T06:30:16.095Z,56.83
2022-12-16T06:33:01.761Z,56.93
2022-12-16T06:35:50.733Z,57.23
2022-12-16T06:38:36.496Z,57.36
2022-12-16T06:41:22.185Z,56.71
2022-12-16T06:44:07.658Z,56.72
2022-12-16T06:46:53.326Z,56.27
2022-12-16T06:49:39.400Z,56.12
2022-12-16T06:52:32.422Z,56.31
2022-12-16T06:55:18.245Z,55.94
2022-12-16T06:58:08.212Z,54.51
2022-12-16T07:00:55.771Z,54.03
2022-12-16T07:03:42.503Z,54.04
2022-12-16T07:06:34.521Z,53.98
2022-12-16T07:09:20.387Z,53.63
2022-12-16T07:12:09.313Z,53.48
2022-12-16T07:14:55.186Z,53.53
2022-12-16T07:17:41.120Z,53.47
2022-12-16T07:20:27.330Z,53.53
2022-12-16T07:23:19.253Z,53.24
2022-12-16T07:26:09.796Z,53.18
2022-12-16T07:28:55.918Z,53.55
2022-12-16T07:31:42.426Z,53.84
2022-12-16T07:34:28.086Z,53.40
2022-12-16T07:37:13.711Z,53.41
2022-12-16T07:39:59.830Z,53.17
2022-12-16T07:42:45.485Z,53.30
2022-12-16T07:45:31.416Z,53.53
2022-12-16T07:48:16.949Z,53.25
2022-12-16T07:51:02.423Z,53.20
2022-12-16T07:53:48.026Z,53.10
2022-12-16T07:56:33.968Z,52.82
2022-12-16T07:59:19.960Z,52.97
2022-12-16T08:02:08.428Z,52.83
2022-12-16T08:05:00.290Z,52.88
2022-12-16T08:07:45.849Z,52.50
2022-12-16T08:10:31.525Z,52.74
2022-12-16T08:13:25.604Z,52.28
2022-12-16T08:16:11.641Z,52.34
2022-12-16T08:19:10.507Z,52.55
2022-12-16T08:21:57.282Z,52.41
2022-12-16T08:24:46.901Z,52.48
2022-12-16T08:27:35.835Z,52.53
2022-12-16T08:30:23.777Z,52.49
2022-12-16T08:33:18.907Z,52.23
2022-12-16T08:36:05.948Z,52.53
2022-12-16T08:39:00.523Z,52.29
2022-12-16T08:41:46.202Z,52.39
2022-12-16T08:44:35.456Z,51.69
2022-12-16T08:47:21.836Z,51.62
2022-12-16T08:50:07.528Z,51.43
2022-12-16T08:52:53.088Z,50.97
2022-12-16T08:55:43.436Z,50.79
2022-12-16T08:58:28.878Z,50.32
2022-12-16T09:01:14.804Z,49.82
2022-12-16T09:04:09.963Z,49.39
2022-12-16T09:07:07.681Z,49.00
2022-12-16T09:09:53.768Z,49.07
2022-12-16T09:12:43.886Z,48.63
2022-12-16T09:15:30.409Z,48.05
2022-12-16T09:18:18.616Z,47.69
2022-12-16T09:21:08.046Z,47.59
2022-12-16T09:23:54.183Z,47.53
2022-12-16T09:26:53.370Z,47.77
2022-12-16T09:29:43.618Z,47.82
2022-12-16T09:32:45.029Z,47.97
2022-12-16T09:35:34.001Z,47.64
2022-12-16T09:38:20.809Z,46.81
2022-12-16T09:41:10.200Z,45.96
2022-12-16T09:43:59.238Z,44.57
2022-12-16T09:47:08.402Z,44.59
2022-12-16T09:50:08.389Z,43.15
2022-12-16T09:52:59.222Z,42.81
2022-12-16T09:55:52.032Z,41.48
2022-12-16T09:58:40.925Z,41.90
2022-12-16T10:01:29.459Z,41.31
2022-12-16T10:04:15.312Z,41.01
2022-12-16T10:07:05.814Z,40.35
2022-12-16T10:10:12.673Z,39.55
2022-12-16T10:13:17.741Z,39.13
2022-12-16T10:16:10.339Z,38.03
2022-12-16T10:19:22.412Z,37.82
2022-12-16T10:22:36.463Z,36.86
2022-12-16T10:25:43.655Z,36.36
2022-12-16T10:28:38.759Z,37.70
2022-12-16T10:31:36.230Z,36.48
2022-12-16T10:34:30.412Z,35.62
2022-12-16T10:37:24.798Z,35.86
2022-12-16T10:40:32.093Z,34.88
2022-12-16T10:46:50.499Z,34.04
2022-12-16T10:53:27.234Z,33.03
2022-12-16T10:56:41.694Z,32.33
2022-12-16T11:02:58.729Z,31.43
2022-12-16T11:05:51.136Z,30.75
2022-12-16T11:08:51.753Z,31.22
2022-12-16T11:11:47.191Z,31.18
2022-12-16T11:14:33.169Z,31.09
2022-12-16T11:17:32.795Z,29.74
2022-12-16T11:20:26.744Z,29.23
2022-12-16T11:23:35.527Z,28.40
2022-12-16T11:26:30.437Z,27.67
2022-12-16T11:29:24.171Z,27.52
2022-12-16T11:32:19.559Z,26.48
2022-12-16T11:38:17.207Z,26.09
2022-12-16T11:41:08.066Z,25.48
2022-12-16T11:44:02.782Z,25.22
2022-12-16T11:50:22.649Z,24.98
2022-12-16T11:53:18.583Z,24.81
2022-12-16T11:56:16.487Z,26.62
2022-12-16T11:59:32.983Z,25.72
2022-12-16T12:02:26.583Z,24.42
2022-12-16T12:05:14.770Z,25.00
2022-12-16T12:08:14.588Z,25.26
2022-12-16T12:11:13.066Z,26.90
2022-12-16T12:14:12.294Z,25.05
2022-12-16T12:17:09.837Z,26.67
2022-12-16T12:20:22.678Z,27.39
2022-12-16T12:23:11.742Z,27.88
2022-12-16T12:26:14.799Z,27.14
2022-12-16T12:29:22.258Z,26.74
2022-12-16T12:32:21.226Z,26.08
2022-12-16T12:35:16.709Z,25.58
2022-12-16T12:38:27.938Z,25.32
2022-12-16T12:41:30.002Z,25.22
2022-12-16T12:44:36.663Z,25.77
2022-12-16T12:47:29.620Z,25.18
2022-12-16T12:50:33.015Z,24.68
2022-12-16T12:53:24.858Z,23.94
2022-12-16T12:56:13.630Z,23.93
2022-12-16T12:59:01.440Z,25.26
2022-12-16T13:02:01.368Z,25.11
2022-12-16T13:05:13.067Z,24.89
2022-12-16T13:08:05.363Z,25.97
2022-12-16T13:10:57.189Z,26.11
2022-12-16T13:14:11.491Z,26.02
2022-12-16T13:17:03.502Z,25.01
2022-12-16T13:19:51.588Z,26.55
2022-12-16T13:22:50.868Z,26.83
2022-12-16T13:25:54.986Z,27.25
2022-12-16T13:28:47.314Z,27.37
2022-12-16T13:31:33.401Z,26.59
2022-12-16T13:34:23.096Z,27.26
2022-12-16T13:37:24.895Z,26.99
2022-12-16T13:40:39.545Z,26.99
2022-12-16T13:43:36.314Z,26.86
2022-12-16T13:46:25.493Z,26.42
2022-12-16T13:49:11.941Z,27.16
2022-12-16T13:51:57.631Z,26.78
2022-12-16T13:54:47.392Z,26.40
2022-12-16T13:57:36.985Z,25.95
2022-12-16T14:00:28.854Z,25.73
2022-12-16T14:03:19.244Z,26.40
2022-12-16T14:06:05.002Z,26.34
2022-12-16T14:08:57.553Z,26.31
2022-12-16T14:12:00.553Z,27.19
2022-12-16T14:14:50.258Z,28.80
2022-12-16T14:17:46.236Z,29.15
2022-12-16T14:20:40.204Z,29.23
2022-12-16T14:23:59.982Z,29.47
2022-12-16T14:26:53.663Z,29.91
2022-12-16T14:29:44.959Z,31.05
2022-12-16T14:33:01.312Z,31.33
2022-12-16T14:35:48.030Z,31.77
2022-12-16T14:38:56.632Z,32.06
2022-12-16T14:41:43.624Z,33.31
2022-12-16T14:44:43.513Z,33.34
2022-12-16T14:50:15.634Z,33.68
2022-12-16T14:53:01.292Z,33.83
2022-12-16T14:55:52.212Z,34.15
2022-12-16T14:58:42.091Z,34.28
2022-12-16T15:01:33.701Z,34.20
2022-12-16T15:04:24.625Z,33.83
2022-12-16T15:07:12.538Z,34.08
2022-12-16T15:10:03.352Z,34.11
2022-12-16T15:12:54.281Z,34.34
2022-12-16T15:16:01.612Z,35.65
2022-12-16T15:18:50.393Z,35.87
2022-12-16T15:21:36.311Z,35.70
2022-12-16T15:24:26.595Z,35.55
2022-12-16T15:27:31.740Z,35.81
2022-12-16T15:30:17.860Z,35.64
2022-12-16T15:33:11.255Z,36.08
2022-12-16T15:35:58.148Z,36.34
2022-12-16T15:38:47.312Z,36.38
2022-12-16T15:41:36.553Z,36.69
2022-12-16T15:44:22.159Z,36.62
2022-12-16T15:47:09.198Z,36.77
2022-12-16T15:50:06.196Z,36.69
2022-12-16T15:52:51.933Z,36.83
2022-12-16T15:55:45.348Z,37.39
2022-12-16T15:58:32.188Z,37.29
2022-12-16T16:01:21.450Z,37.52
2022-12-16T16:04:10.788Z,37.65
2022-12-16T16:07:03.742Z,38.52
2022-12-16T16:09:50.215Z,38.67
2022-12-16T16:12:36.797Z,38.22
2022-12-16T16:15:27.451Z,38.55
2022-12-16T16:18:34.685Z,38.64
2022-12-16T16:21:21.082Z,39.68
2022-12-16T16:24:06.990Z,39.92
2022-12-16T16:26:52.912Z,40.13
2022-12-16T16:29:49.088Z,39.90
2022-12-16T16:32:34.498Z,40.11
2022-12-16T16:35:20.146Z,40.08
2022-12-16T16:38:15.413Z,40.79
2022-12-16T16:41:05.454Z,41.01
2022-12-16T16:43:52.059Z,41.39
2022-12-16T16:46:43.613Z,41.33
2022-12-16T16:49:30.990Z,41.79
2022-12-16T16:52:17.498Z,41.46
2022-12-16T16:55:03.135Z,41.82
2022-12-16T16:57:51.240Z,41.83
2022-12-16T17:00:37.211Z,42.25
2022-12-16T17:03:23.555Z,41.85
2022-12-16T17:06:09.569Z,42.04
2022-12-16T17:08:55.187Z,42.05
2022-12-16T17:11:41.185Z,42.76
2022-12-16T17:14:33.933Z,42.73
2022-12-16T17:17:20.058Z,42.61
2022-12-16T17:20:08.889Z,42.60
2022-12-16T17:22:54.980Z,42.48
2022-12-16T17:25:43.865Z,42.97
2022-12-16T17:28:30.100Z,42.67
2022-12-16T17:31:15.752Z,42.84
2022-12-16T17:34:15.123Z,43.18
2022-12-16T17:37:00.513Z,43.06
2022-12-16T17:39:49.002Z,43.13
2022-12-16T17:42:35.254Z,43.29
2022-12-16T17:45:20.971Z,43.48
2022-12-16T17:48:15.146Z,43.37
2022-12-16T17:51:01.015Z,43.45
2022-12-16T17:56:50.308Z,43.96
2022-12-16T17:59:35.920Z,43.95
2022-12-16T18:02:21.678Z,44.00
2022-12-16T18:05:07.398Z,43.92
2022-12-16T18:07:53.540Z,43.97
2022-12-16T18:10:39.993Z,44.14
2022-12-16T18:13:27.661Z,44.07
2022-12-16T18:16:14.800Z,44.48
2022-12-16T18:19:00.931Z,44.32
2022-12-16T18:21:48.530Z,44.69
2022-12-16T18:24:35.698Z,44.66
2022-12-16T18:27:26.033Z,44.99
2022-12-16T18:30:14.555Z,45.18
2022-12-16T18:33:00.148Z,45.55
2022-12-16T18:35:45.924Z,45.76
2022-12-16T18:38:35.170Z,45.71
2022-12-16T18:41:24.510Z,45.85
2022-12-16T18:44:17.571Z,46.10
2022-12-16T18:47:04.277Z,45.98
2022-12-16T18:49:49.917Z,46.19
2022-12-16T18:52:39.148Z,46.35
2022-12-16T18:55:25.148Z,46.53
2022-12-16T18:58:27.843Z,46.37
2022-12-16T19:01:21.012Z,46.47
2022-12-16T19:04:06.760Z,46.14
2022-12-16T19:06:52.286Z,46.22
2022-12-16T19:09:40.927Z,46.11
2022-12-16T19:12:30.936Z,46.16
2022-12-16T19:15:22.011Z,46.18
2022-12-16T19:18:08.264Z,46.66
2022-12-16T19:21:10.925Z,46.34
2022-12-16T19:24:13.107Z,46.31
2022-12-16T19:27:15.499Z,46.38
2022-12-16T19:30:15.223Z,46.15
2022-12-16T19:33:08.333Z,46.37
2022-12-16T19:36:04.479Z,46.80
2022-12-16T19:38:53.598Z,46.47
2022-12-16T19:42:00.942Z,46.25
2022-12-16T19:44:49.609Z,46.28
2022-12-16T19:47:40.966Z,46.43
2022-12-16T19:50:38.841Z,46.00
2022-12-16T19:53:25.016Z,45.86
2022-12-16T19:56:17.904Z,45.86
2022-12-16T19:59:04.305Z,46.13
2022-12-16T20:02:07.909Z,46.03
2022-12-16T20:04:56.159Z,45.94
2022-12-16T20:07:43.575Z,46.36
2022-12-16T20:10:30.615Z,46.43
2022-12-16T20:13:35.569Z,46.37
2022-12-16T20:16:25.622Z,46.37
2022-12-16T20:19:13.951Z,46.52
2022-12-16T20:22:06.791Z,46.51
2022-12-16T20:24:56.381Z,46.41
2022-12-16T20:28:03.292Z,46.43
2022-12-16T20:30:49.368Z,46.36
2022-12-16T20:33:40.930Z,46.19
2022-12-16T20:36:29.590Z,46.33
2022-12-16T20:39:23.200Z,46.84
2022-12-16T20:42:12.166Z,47.02
2022-12-16T20:48:00.970Z,46.60
2022-12-16T20:53:46.871Z,46.75
2022-12-16T20:56:34.929Z,47.14
2022-12-16T20:59:21.665Z,47.47
2022-12-16T21:02:23.289Z,47.63
2022-12-16T21:05:14.106Z,47.44
2022-12-16T21:08:09.978Z,47.75
2022-12-16T21:10:59.208Z,48.30
2022-12-16T21:13:48.301Z,47.92
2022-12-16T21:16:46.350Z,48.41
2022-12-16T21:19:33.700Z,48.55
2022-12-16T21:25:24.787Z,49.09
2022-12-16T21:28:18.582Z,49.11
2022-12-16T21:31:35.220Z,48.97
2022-12-16T21:34:24.726Z,48.87
2022-12-16T21:37:14.599Z,48.58
2022-12-16T21:40:06.010Z,48.66
2022-12-16T21:42:56.310Z,48.38
2022-12-16T21:45:43.029Z,48.43
2022-12-16T21:48:36.678Z,48.86
2022-12-16T21:51:33.096Z,49.01
2022-12-16T21:54:25.599Z,48.87
2022-12-16T21:57:20.730Z,49.23
2022-12-16T22:00:10.713Z,49.01
2022-12-16T22:03:06.610Z,49.09
2022-12-16T22:05:56.098Z,48.97
2022-12-16T22:08:44.077Z,49.11
2022-12-16T22:14:47.507Z,48.86
2022-12-16T22:17:57.785Z,49.00
2022-12-16T22:20:54.064Z,49.14
2022-12-16T22:23:49.107Z,49.29
2022-12-16T22:26:38.600Z,49.23
2022-12-16T22:29:25.739Z,49.46
2022-12-16T22:32:12.608Z,49.41
2022-12-16T22:34:58.488Z,49.55
2022-12-16T22:37:45.378Z,49.35
2022-12-16T22:40:34.034Z,49.41
2022-12-16T22:43:24.128Z,49.45
2022-12-16T22:46:22.383Z,49.24
2022-12-16T22:49:16.684Z,49.58
2022-12-16T22:52:14.853Z,49.78
2022-12-16T22:55:01.908Z,50.06
2022-12-16T22:57:56.823Z,49.85
2022-12-16T23:03:57.283Z,49.89
2022-12-16T23:06:48.261Z,49.84
2022-12-16T23:09:42.144Z,49.84
2022-12-16T23:12:39.823Z,49.91
2022-12-16T23:15:35.995Z,49.83
2022-12-16T23:18:28.051Z,49.77
2022-12-16T23:21:21.756Z,49.92
2022-12-16T23:24:10.477Z,49.68
2022-12-16T23:26:59.716Z,49.88
2022-12-16T23:29:49.281Z,49.56
2022-12-16T23:32:36.928Z,49.71
2022-12-16T23:35:32.041Z,49.74
2022-12-16T23:38:19.429Z,49.86
2022-12-16T23:41:16.337Z,49.74
2022-12-16T23:44:11.846Z,49.82
2022-12-16T23:47:00.790Z,49.56
2022-12-16T23:49:59.033Z,49.50
2022-12-16T23:52:46.923Z,49.59
2022-12-16T23:55:34.969Z,49.40
2022-12-16T23:58:30.889Z,49.47
